sensor_id;sensor_type;location;lat;lon;timestamp;temperature;humidity
7455;HTU21D;3769;51.208;4.454;2023-04-25T00:04:01;8.7;97.6
7455;HTU21D;3769;51.208;4.454;2023-04-25T00:09:00;8.8;97.6
7455;HTU21D;3769;51.208;4.454;2023-04-25T00:14:00;8.7;97.6
7455;HTU21D;3769;51.208;4.454;2023-04-25T00:19:01;8.6;97.5
7455;HTU21D;3769;51.208;4.454;2023-04-25T00:24:01;8.7;97.6
7455;HTU21D;3769;51.208;4.454;2023-04-25T00:29:01;8.8;97.6
7455;HTU21D;3769;51.208;4.454;2023-04-25T00:34:01;8.8;97.6
7455;HTU21D;3769;51.208;4.454;2023-04-25T00:39:01;8.8;97.6
7455;HTU21D;3769;51.208;4.454;2023-04-25T00:44:01;8.7;97.6
7455;HTU21D;3769;51.208;4.454;2023-04-25T00:49:01;8.8;97.6
7455;HTU21D;3769;51.208;4.454;2023-04-25T00:54:01;8.6;97.5
7455;HTU21D;3769;51.208;4.454;2023-04-25T00:59:01;8.7;97.6
7455;HTU21D;3769;51.208;4.454;2023-04-25T01:04:01;8.7;97.6
7455;HTU21D;3769;51.208;4.454;2023-04-25T01:09:01;8.6;97.5
7455;HTU21D;3769;51.208;4.454;2023-04-25T01:14:01;8.7;97.6
7455;HTU21D;3769;51.208;4.454;2023-04-25T01:19:01;8.6;97.5
7455;HTU21D;3769;51.208;4.454;2023-04-25T01:24:01;8.6;97.5
7455;HTU21D;3769;51.208;4.454;2023-04-25T01:29:01;8.7;97.6
7455;HTU21D;3769;51.208;4.454;2023-04-25T01:34:01;8.6;97.5
7455;HTU21D;3769;51.208;4.454;2023-04-25T01:39:01;8.6;97.5
7455;HTU21D;3769;51.208;4.454;2023-04-25T01:44:01;8.7;97.6
7455;HTU21D;3769;51.208;4.454;2023-04-25T01:49:01;8.5;97.5
7455;HTU21D;3769;51.208;4.454;2023-04-25T01:54:01;8.7;97.6
7455;HTU21D;3769;51.208;4.454;2023-04-25T01:59:01;8.6;97.5
7455;HTU21D;3769;51.208;4.454;2023-04-25T02:04:01;8.6;97.5
7455;HTU21D;3769;51.208;4.454;2023-04-25T02:09:01;8.5;97.5
7455;HTU21D;3769;51.208;4.454;2023-04-25T02:14:00;8.5;97.5
7455;HTU21D;3769;51.208;4.454;2023-04-25T02:19:01;8.2;97.5
7455;HTU21D;3769;51.208;4.454;2023-04-25T02:24:01;8;97.5
7455;HTU21D;3769;51.208;4.454;2023-04-25T02:29:01;7.9;97.4
7455;HTU21D;3769;51.208;4.454;2023-04-25T02:34:01;7.8;97.4
7455;HTU21D;3769;51.208;4.454;2023-04-25T02:39:01;8;97.4
7455;HTU21D;3769;51.208;4.454;2023-04-25T02:44:01;8;97.5
7455;HTU21D;3769;51.208;4.454;2023-04-25T02:49:00;7.9;97.4
7455;HTU21D;3769;51.208;4.454;2023-04-25T02:54:01;7.9;97.4
7455;HTU21D;3769;51.208;4.454;2023-04-25T02:59:01;8.1;97.5
7455;HTU21D;3769;51.208;4.454;2023-04-25T03:04:01;8.1;97.5
7455;HTU21D;3769;51.208;4.454;2023-04-25T03:09:01;8.1;97.5
7455;HTU21D;3769;51.208;4.454;2023-04-25T03:14:00;8;97.5
7455;HTU21D;3769;51.208;4.454;2023-04-25T03:19:01;7.9;97.4
7455;HTU21D;3769;51.208;4.454;2023-04-25T03:24:01;8;97.4
7455;HTU21D;3769;51.208;4.454;2023-04-25T03:29:01;8;97.5
7455;HTU21D;3769;51.208;4.454;2023-04-25T03:34:01;8;97.5
7455;HTU21D;3769;51.208;4.454;2023-04-25T03:39:01;8.1;97.5
7455;HTU21D;3769;51.208;4.454;2023-04-25T03:44:01;7.9;97.4
7455;HTU21D;3769;51.208;4.454;2023-04-25T03:49:01;8;97.4
7455;HTU21D;3769;51.208;4.454;2023-04-25T03:54:01;7.8;97.4
7455;HTU21D;3769;51.208;4.454;2023-04-25T03:59:01;7.9;97.4
7455;HTU21D;3769;51.208;4.454;2023-04-25T04:04:01;7.9;97.4
7455;HTU21D;3769;51.208;4.454;2023-04-25T04:09:01;7.8;97.4
7455;HTU21D;3769;51.208;4.454;2023-04-25T04:14:01;7.6;97.4
7455;HTU21D;3769;51.208;4.454;2023-04-25T04:19:01;7.5;97.4
7455;HTU21D;3769;51.208;4.454;2023-04-25T04:24:01;7.6;97.4
7455;HTU21D;3769;51.208;4.454;2023-04-25T04:29:01;7.7;97.4
7455;HTU21D;3769;51.208;4.454;2023-04-25T04:34:01;7.7;97.4
7455;HTU21D;3769;51.208;4.454;2023-04-25T04:39:01;7.8;97.4
7455;HTU21D;3769;51.208;4.454;2023-04-25T04:44:01;7.8;97.4
7455;HTU21D;3769;51.208;4.454;2023-04-25T04:49:01;7.7;97.4
7455;HTU21D;3769;51.208;4.454;2023-04-25T04:54:01;7.9;97.4
7455;HTU21D;3769;51.208;4.454;2023-04-25T04:59:01;7.9;97.4
7455;HTU21D;3769;51.208;4.454;2023-04-25T05:04:01;7.8;97.4
7455;HTU21D;3769;51.208;4.454;2023-04-25T05:09:01;7.9;97.4
7455;HTU21D;3769;51.208;4.454;2023-04-25T05:14:01;7.9;97.4
7455;HTU21D;3769;51.208;4.454;2023-04-25T05:19:01;7.8;97.4
7455;HTU21D;3769;51.208;4.454;2023-04-25T05:24:01;7.9;97.4
7455;HTU21D;3769;51.208;4.454;2023-04-25T05:29:01;8;97.5
7455;HTU21D;3769;51.208;4.454;2023-04-25T05:34:01;8;97.4
7455;HTU21D;3769;51.208;4.454;2023-04-25T05:39:01;8;97.5
7455;HTU21D;3769;51.208;4.454;2023-04-25T05:44:01;7.9;97.4
7455;HTU21D;3769;51.208;4.454;2023-04-25T05:49:01;7.9;97.4
7455;HTU21D;3769;51.208;4.454;2023-04-25T05:54:01;8.1;97.5
7455;HTU21D;3769;51.208;4.454;2023-04-25T05:59:01;7.9;97.4
7455;HTU21D;3769;51.208;4.454;2023-04-25T06:04:01;8;97.4
7455;HTU21D;3769;51.208;4.454;2023-04-25T06:09:01;8.1;97.5
7455;HTU21D;3769;51.208;4.454;2023-04-25T06:14:01;8.1;93
7455;HTU21D;3769;51.208;4.454;2023-04-25T06:19:01;8.2;94.1
7455;HTU21D;3769;51.208;4.454;2023-04-25T06:24:01;8.2;90
7455;HTU21D;3769;51.208;4.454;2023-04-25T06:29:01;8.2;92.8
7455;HTU21D;3769;51.208;4.454;2023-04-25T06:34:01;8.2;94.4
7455;HTU21D;3769;51.208;4.454;2023-04-25T06:39:01;8.2;92.3
7455;HTU21D;3769;51.208;4.454;2023-04-25T06:44:01;8.2;92.9
7455;HTU21D;3769;51.208;4.454;2023-04-25T06:49:01;8.2;95.8
7455;HTU21D;3769;51.208;4.454;2023-04-25T06:54:01;8.2;90.3
7455;HTU21D;3769;51.208;4.454;2023-04-25T06:59:01;8.3;96.7
7455;HTU21D;3769;51.208;4.454;2023-04-25T07:04:01;8.5;89.9
7455;HTU21D;3769;51.208;4.454;2023-04-25T07:09:01;8.4;95
7455;HTU21D;3769;51.208;4.454;2023-04-25T07:14:01;8.4;92.1
7455;HTU21D;3769;51.208;4.454;2023-04-25T07:19:01;8.3;92.1
7455;HTU21D;3769;51.208;4.454;2023-04-25T07:24:01;8.5;97.5
7455;HTU21D;3769;51.208;4.454;2023-04-25T07:29:01;8.5;93.6
7455;HTU21D;3769;51.208;4.454;2023-04-25T07:34:01;8.5;91.9
7455;HTU21D;3769;51.208;4.454;2023-04-25T07:39:01;8.5;90.1
7455;HTU21D;3769;51.208;4.454;2023-04-25T07:44:01;8.5;90.4
7455;HTU21D;3769;51.208;4.454;2023-04-25T07:49:01;8.5;90.8
7455;HTU21D;3769;51.208;4.454;2023-04-25T07:54:01;8.5;91.9
7455;HTU21D;3769;51.208;4.454;2023-04-25T07:59:01;8.8;86.7
7455;HTU21D;3769;51.208;4.454;2023-04-25T08:04:01;9;82.2
7455;HTU21D;3769;51.208;4.454;2023-04-25T08:09:01;9;79.2
7455;HTU21D;3769;51.208;4.454;2023-04-25T08:14:01;8.6;80.4
7455;HTU21D;3769;51.208;4.454;2023-04-25T08:19:01;8.4;82.6
7455;HTU21D;3769;51.208;4.454;2023-04-25T08:24:01;8.5;85.6
7455;HTU21D;3769;51.208;4.454;2023-04-25T08:29:01;8.3;86
7455;HTU21D;3769;51.208;4.454;2023-04-25T08:34:01;8.5;86.2
7455;HTU21D;3769;51.208;4.454;2023-04-25T08:39:01;8.5;89.3
7455;HTU21D;3769;51.208;4.454;2023-04-25T08:44:01;8.8;83.5
7455;HTU21D;3769;51.208;4.454;2023-04-25T08:49:01;9.1;82.7
7455;HTU21D;3769;51.208;4.454;2023-04-25T08:54:09;9;82.2
7455;HTU21D;3769;51.208;4.454;2023-04-25T08:59:01;8.9;85.8
7455;HTU21D;3769;51.208;4.454;2023-04-25T09:04:01;8.8;81.5
7455;HTU21D;3769;51.208;4.454;2023-04-25T09:09:03;9.2;80.1
7455;HTU21D;3769;51.208;4.454;2023-04-25T09:14:17;9.4;78.4
7455;HTU21D;3769;51.208;4.454;2023-04-25T09:19:01;9.6;78.8
7455;HTU21D;3769;51.208;4.454;2023-04-25T09:24:01;9.6;81
7455;HTU21D;3769;51.208;4.454;2023-04-25T09:29:04;9.6;66.3
7455;HTU21D;3769;51.208;4.454;2023-04-25T09:34:01;9.9;63.8
7455;HTU21D;3769;51.208;4.454;2023-04-25T09:39:01;9.7;61.1
7455;HTU21D;3769;51.208;4.454;2023-04-25T09:44:01;9.8;66.2
7455;HTU21D;3769;51.208;4.454;2023-04-25T09:49:05;9.6;66.8
7455;HTU21D;3769;51.208;4.454;2023-04-25T09:54:01;9.5;66.1
7455;HTU21D;3769;51.208;4.454;2023-04-25T09:59:01;9.5;68.9
7455;HTU21D;3769;51.208;4.454;2023-04-25T10:04:01;9.5;69.2
7455;HTU21D;3769;51.208;4.454;2023-04-25T10:09:01;9.9;69.2
7455;HTU21D;3769;51.208;4.454;2023-04-25T10:14:01;10;68.4
7455;HTU21D;3769;51.208;4.454;2023-04-25T10:19:01;9.4;69.5
7455;HTU21D;3769;51.208;4.454;2023-04-25T10:24:01;9.6;72.9
7455;HTU21D;3769;51.208;4.454;2023-04-25T10:29:01;9.4;70.1
7455;HTU21D;3769;51.208;4.454;2023-04-25T10:34:01;9.6;67.4
7455;HTU21D;3769;51.208;4.454;2023-04-25T10:39:04;9.9;64.8
7455;HTU21D;3769;51.208;4.454;2023-04-25T10:44:01;9.6;65.2
7455;HTU21D;3769;51.208;4.454;2023-04-25T10:49:01;9.5;65.5
7455;HTU21D;3769;51.208;4.454;2023-04-25T10:54:02;9.8;62.2
7455;HTU21D;3769;51.208;4.454;2023-04-25T10:59:17;10;59.7
7455;HTU21D;3769;51.208;4.454;2023-04-25T11:04:01;10.5;60.5
7455;HTU21D;3769;51.208;4.454;2023-04-25T11:09:01;10.3;58
7455;HTU21D;3769;51.208;4.454;2023-04-25T11:14:01;10.2;61.5
7455;HTU21D;3769;51.208;4.454;2023-04-25T11:19:01;10;60
7455;HTU21D;3769;51.208;4.454;2023-04-25T11:24:01;10;61.3
7455;HTU21D;3769;51.208;4.454;2023-04-25T11:29:01;10.2;61.5
7455;HTU21D;3769;51.208;4.454;2023-04-25T11:34:01;10.1;57.1
7455;HTU21D;3769;51.208;4.454;2023-04-25T11:39:01;10.3;57.4
7455;HTU21D;3769;51.208;4.454;2023-04-25T11:44:01;10.6;52.8
7455;HTU21D;3769;51.208;4.454;2023-04-25T11:49:01;10.5;58.7
7455;HTU21D;3769;51.208;4.454;2023-04-25T11:54:01;10.8;63.4
7455;HTU21D;3769;51.208;4.454;2023-04-25T11:59:02;10.7;63.3
7455;HTU21D;3769;51.208;4.454;2023-04-25T12:04:17;10.4;60.4
7455;HTU21D;3769;51.208;4.454;2023-04-25T12:09:02;10.7;60.8
7455;HTU21D;3769;51.208;4.454;2023-04-25T12:14:01;10.7;59.1
7455;HTU21D;3769;51.208;4.454;2023-04-25T12:19:01;11.3;59.3
7455;HTU21D;3769;51.208;4.454;2023-04-25T12:24:17;11.2;58.3
7455;HTU21D;3769;51.208;4.454;2023-04-25T12:29:01;11.2;54.6
7455;HTU21D;3769;51.208;4.454;2023-04-25T12:34:01;11.5;53.6
7455;HTU21D;3769;51.208;4.454;2023-04-25T12:39:01;11.7;53.9
7455;HTU21D;3769;51.208;4.454;2023-04-25T12:44:01;12.2;54.7
7455;HTU21D;3769;51.208;4.454;2023-04-25T12:49:01;14.3;53.7
7455;HTU21D;3769;51.208;4.454;2023-04-25T12:54:01;15;47
7455;HTU21D;3769;51.208;4.454;2023-04-25T12:59:01;12.7;54.9
7455;HTU21D;3769;51.208;4.454;2023-04-25T13:04:01;11.8;57.2
7455;HTU21D;3769;51.208;4.454;2023-04-25T13:09:01;14.8;48.9
7455;HTU21D;3769;51.208;4.454;2023-04-25T13:14:01;15.9;38
7455;HTU21D;3769;51.208;4.454;2023-04-25T13:19:01;18;35.7
7455;HTU21D;3769;51.208;4.454;2023-04-25T13:24:01;15.3;43.8
7455;HTU21D;3769;51.208;4.454;2023-04-25T13:29:01;15.4;46.7
7455;HTU21D;3769;51.208;4.454;2023-04-25T13:34:01;14.5;46.3
7455;HTU21D;3769;51.208;4.454;2023-04-25T13:39:01;14.6;44.8
7455;HTU21D;3769;51.208;4.454;2023-04-25T13:44:01;13.3;47.5
7455;HTU21D;3769;51.208;4.454;2023-04-25T13:49:01;12.9;50.6
7455;HTU21D;3769;51.208;4.454;2023-04-25T13:54:01;14.2;49.5
7455;HTU21D;3769;51.208;4.454;2023-04-25T13:59:01;15.3;44
7455;HTU21D;3769;51.208;4.454;2023-04-25T14:04:01;15.9;41.5
7455;HTU21D;3769;51.208;4.454;2023-04-25T14:09:01;14.5;44.9
7455;HTU21D;3769;51.208;4.454;2023-04-25T14:14:01;15.6;42.5
7455;HTU21D;3769;51.208;4.454;2023-04-25T14:19:01;16;40.7
7455;HTU21D;3769;51.208;4.454;2023-04-25T14:24:01;15;45.7
7455;HTU21D;3769;51.208;4.454;2023-04-25T14:29:01;15.4;46.1
7455;HTU21D;3769;51.208;4.454;2023-04-25T14:34:01;15.1;45.1
7455;HTU21D;3769;51.208;4.454;2023-04-25T14:39:01;15.2;45.7
7455;HTU21D;3769;51.208;4.454;2023-04-25T14:44:01;14;46.8
7455;HTU21D;3769;51.208;4.454;2023-04-25T14:49:01;14.1;47.9
7455;HTU21D;3769;51.208;4.454;2023-04-25T14:54:01;14.1;51.6
7455;HTU21D;3769;51.208;4.454;2023-04-25T14:59:01;13.1;49.1
7455;HTU21D;3769;51.208;4.454;2023-04-25T15:04:01;12.7;51.9
7455;HTU21D;3769;51.208;4.454;2023-04-25T15:09:01;12.5;51.7
7455;HTU21D;3769;51.208;4.454;2023-04-25T15:14:01;12;53.3
7455;HTU21D;3769;51.208;4.454;2023-04-25T15:19:01;12;52.7
7455;HTU21D;3769;51.208;4.454;2023-04-25T15:24:01;12;54.2
7455;HTU21D;3769;51.208;4.454;2023-04-25T15:29:01;11.8;52.6
7455;HTU21D;3769;51.208;4.454;2023-04-25T15:34:01;11.7;53.4
7455;HTU21D;3769;51.208;4.454;2023-04-25T15:39:01;11.5;52.5
7455;HTU21D;3769;51.208;4.454;2023-04-25T15:44:01;11.5;57.4
7455;HTU21D;3769;51.208;4.454;2023-04-25T15:49:01;11.6;52.5
7455;HTU21D;3769;51.208;4.454;2023-04-25T15:54:01;11.5;53.2
7455;HTU21D;3769;51.208;4.454;2023-04-25T15:59:01;11.4;52.9
7455;HTU21D;3769;51.208;4.454;2023-04-25T16:04:01;11.6;54.6
7455;HTU21D;3769;51.208;4.454;2023-04-25T16:09:01;11.3;54.3
7455;HTU21D;3769;51.208;4.454;2023-04-25T16:14:01;11.5;54.5
7455;HTU21D;3769;51.208;4.454;2023-04-25T16:19:01;11.4;54.4
7455;HTU21D;3769;51.208;4.454;2023-04-25T16:24:01;11.3;54.3
7455;HTU21D;3769;51.208;4.454;2023-04-25T16:29:02;11.2;54.5
7455;HTU21D;3769;51.208;4.454;2023-04-25T16:34:01;11.1;55.5
7455;HTU21D;3769;51.208;4.454;2023-04-25T16:39:01;11;56.3
7455;HTU21D;3769;51.208;4.454;2023-04-25T16:44:01;10.9;59.1
7455;HTU21D;3769;51.208;4.454;2023-04-25T16:49:01;10.9;57.1
7455;HTU21D;3769;51.208;4.454;2023-04-25T16:54:01;10.8;58.4
7455;HTU21D;3769;51.208;4.454;2023-04-25T16:59:01;10.5;58.6
7455;HTU21D;3769;51.208;4.454;2023-04-25T17:04:01;10.6;62
7455;HTU21D;3769;51.208;4.454;2023-04-25T17:09:01;10.4;60.8
7455;HTU21D;3769;51.208;4.454;2023-04-25T17:14:01;10.3;61
7455;HTU21D;3769;51.208;4.454;2023-04-25T17:19:02;10.4;59.1
7455;HTU21D;3769;51.208;4.454;2023-04-25T17:24:01;10.4;60.9
7455;HTU21D;3769;51.208;4.454;2023-04-25T17:29:01;10.3;62.9
7455;HTU21D;3769;51.208;4.454;2023-04-25T17:34:01;10;60.7
7455;HTU21D;3769;51.208;4.454;2023-04-25T17:39:01;9.9;58.5
7455;HTU21D;3769;51.208;4.454;2023-04-25T17:44:01;9.9;59.6
7455;HTU21D;3769;51.208;4.454;2023-04-25T17:49:01;10;57.5
7455;HTU21D;3769;51.208;4.454;2023-04-25T17:54:01;9.8;54.8
7455;HTU21D;3769;51.208;4.454;2023-04-25T17:59:01;9.8;59
7455;HTU21D;3769;51.208;4.454;2023-04-25T18:04:01;9.6;60.1
7455;HTU21D;3769;51.208;4.454;2023-04-25T18:09:01;9.5;61.6
7455;HTU21D;3769;51.208;4.454;2023-04-25T18:14:01;9.5;63.9
7455;HTU21D;3769;51.208;4.454;2023-04-25T18:19:01;9.4;68.3
7455;HTU21D;3769;51.208;4.454;2023-04-25T18:24:01;9.5;69.4
7455;HTU21D;3769;51.208;4.454;2023-04-25T18:29:01;9.3;68.1
7455;HTU21D;3769;51.208;4.454;2023-04-25T18:34:01;9.2;67
7455;HTU21D;3769;51.208;4.454;2023-04-25T18:39:01;9;66.8
7455;HTU21D;3769;51.208;4.454;2023-04-25T18:44:01;8.9;65.7
7455;HTU21D;3769;51.208;4.454;2023-04-25T18:49:01;8.9;66.2
7455;HTU21D;3769;51.208;4.454;2023-04-25T18:54:01;9.1;66.9
7455;HTU21D;3769;51.208;4.454;2023-04-25T18:59:01;8.9;68.7
7455;HTU21D;3769;51.208;4.454;2023-04-25T19:04:01;8.8;69.4
7455;HTU21D;3769;51.208;4.454;2023-04-25T19:09:01;8.9;71.5
7455;HTU21D;3769;51.208;4.454;2023-04-25T19:14:01;8.8;70.4
7455;HTU21D;3769;51.208;4.454;2023-04-25T19:19:01;8.5;69.9
7455;HTU21D;3769;51.208;4.454;2023-04-25T19:24:01;8.5;71.4
7455;HTU21D;3769;51.208;4.454;2023-04-25T19:29:03;8.8;72.8
7455;HTU21D;3769;51.208;4.454;2023-04-25T19:34:01;9.4;71.2
7455;HTU21D;3769;51.208;4.454;2023-04-25T19:39:01;9.1;71.9
7455;HTU21D;3769;51.208;4.454;2023-04-25T19:44:02;8.9;73.3
7455;HTU21D;3769;51.208;4.454;2023-04-25T19:49:01;8.8;75
7455;HTU21D;3769;51.208;4.454;2023-04-25T19:54:01;8.5;73.6
7455;HTU21D;3769;51.208;4.454;2023-04-25T19:59:01;8.4;73.3
7455;HTU21D;3769;51.208;4.454;2023-04-25T20:04:01;8.3;75.6
7455;HTU21D;3769;51.208;4.454;2023-04-25T20:09:01;8.2;76.9
7455;HTU21D;3769;51.208;4.454;2023-04-25T20:14:01;8.2;78.2
7455;HTU21D;3769;51.208;4.454;2023-04-25T20:19:01;8.1;78.8
7455;HTU21D;3769;51.208;4.454;2023-04-25T20:24:01;8.1;78
7455;HTU21D;3769;51.208;4.454;2023-04-25T20:29:01;8.1;76
7455;HTU21D;3769;51.208;4.454;2023-04-25T20:34:01;8.1;76.9
7455;HTU21D;3769;51.208;4.454;2023-04-25T20:39:03;8.1;77
7455;HTU21D;3769;51.208;4.454;2023-04-25T20:44:01;7.9;77.7
7455;HTU21D;3769;51.208;4.454;2023-04-25T20:49:01;7.9;79.2
7455;HTU21D;3769;51.208;4.454;2023-04-25T20:54:01;7.9;80
7455;HTU21D;3769;51.208;4.454;2023-04-25T20:59:01;7.9;82.3
7455;HTU21D;3769;51.208;4.454;2023-04-25T21:04:01;7.9;81
7455;HTU21D;3769;51.208;4.454;2023-04-25T21:09:01;7.9;80.6
7455;HTU21D;3769;51.208;4.454;2023-04-25T21:14:01;7.9;83
7455;HTU21D;3769;51.208;4.454;2023-04-25T21:19:01;7.9;82.2
7455;HTU21D;3769;51.208;4.454;2023-04-25T21:24:01;7.7;85.6
7455;HTU21D;3769;51.208;4.454;2023-04-25T21:29:01;7.8;85
7455;HTU21D;3769;51.208;4.454;2023-04-25T21:34:01;7.6;85.1
7455;HTU21D;3769;51.208;4.454;2023-04-25T21:39:01;7.5;84.6
7455;HTU21D;3769;51.208;4.454;2023-04-25T21:44:01;7.7;87.1
7455;HTU21D;3769;51.208;4.454;2023-04-25T21:49:01;7.6;88.2
7455;HTU21D;3769;51.208;4.454;2023-04-25T21:54:01;7.6;87.2
7455;HTU21D;3769;51.208;4.454;2023-04-25T21:59:01;7.6;85.1
7455;HTU21D;3769;51.208;4.454;2023-04-25T22:04:01;7.5;87.2
7455;HTU21D;3769;51.208;4.454;2023-04-25T22:09:01;7.5;88.5
7455;HTU21D;3769;51.208;4.454;2023-04-25T22:14:01;7.4;90.1
7455;HTU21D;3769;51.208;4.454;2023-04-25T22:19:01;7.4;89.1
7455;HTU21D;3769;51.208;4.454;2023-04-25T22:24:01;7.5;88.8
7455;HTU21D;3769;51.208;4.454;2023-04-25T22:29:01;7.3;90.4
7455;HTU21D;3769;51.208;4.454;2023-04-25T22:34:01;7.3;91.4
7455;HTU21D;3769;51.208;4.454;2023-04-25T22:39:01;7.5;90.8
7455;HTU21D;3769;51.208;4.454;2023-04-25T22:44:01;7.4;92.4
7455;HTU21D;3769;51.208;4.454;2023-04-25T22:49:01;7.3;91.8
7455;HTU21D;3769;51.208;4.454;2023-04-25T22:54:01;7.2;94.8
7455;HTU21D;3769;51.208;4.454;2023-04-25T22:59:01;7.3;92.1
7455;HTU21D;3769;51.208;4.454;2023-04-25T23:04:01;7.3;90.9
7455;HTU21D;3769;51.208;4.454;2023-04-25T23:09:01;7.2;92.7
7455;HTU21D;3769;51.208;4.454;2023-04-25T23:14:01;7.3;93.5
7455;HTU21D;3769;51.208;4.454;2023-04-25T23:19:01;7.2;97.3
7455;HTU21D;3769;51.208;4.454;2023-04-25T23:24:01;7;97.3
7455;HTU21D;3769;51.208;4.454;2023-04-25T23:29:01;7;97.3
7455;HTU21D;3769;51.208;4.454;2023-04-25T23:34:01;7;97.3
7455;HTU21D;3769;51.208;4.454;2023-04-25T23:39:01;6.9;97.3
7455;HTU21D;3769;51.208;4.454;2023-04-25T23:44:01;7;97.3
7455;HTU21D;3769;51.208;4.454;2023-04-25T23:49:01;6.9;97.3
7455;HTU21D;3769;51.208;4.454;2023-04-25T23:54:01;6.8;97.3
7455;HTU21D;3769;51.208;4.454;2023-04-25T23:59:01;6.6;97.2
